Time;durP1;ratioP1;P1;durP2;ratioP2;P2;SDS_P1;SDS_P2;PMS_P1;PMS_P2;Temp;Humidity;BMP_temperature;BMP_pressure;BME280_temperature;BME280_humidity;BME280_pressure;Samples;Min_cycle;Max_cycle;Signal;HPM_P1;HPM_P2
2022/01/03 00:02:26;;;;;;;98.38;49.30;;;9.30;99.90;;;;;;4920334;29;20052;-42
2022/01/03 00:04:52;;;;;;;104.38;52.88;;;9.30;99.90;;;;;;4938551;29;20031;-42
2022/01/03 00:07:18;;;;;;;92.25;46.15;;;9.40;99.90;;;;;;4938072;29;20538;-44
2022/01/03 00:09:44;;;;;;;108.53;54.05;;;9.40;99.90;;;;;;4938032;29;20118;-43
2022/01/03 00:12:10;;;;;;;117.68;61.28;;;9.50;99.90;;;;;;4938210;29;20476;-44
2022/01/03 00:14:37;;;;;;;64.97;37.28;;;9.50;99.90;;;;;;4937905;29;20032;-42
2022/01/03 00:17:02;;;;;;;64.25;35.63;;;9.60;99.90;;;;;;4938204;29;20031;-42
2022/01/03 00:19:28;;;;;;;50.38;31.60;;;9.70;99.90;;;;;;4920200;29;20499;-42
2022/01/03 00:22:04;;;;;;;39.42;27.55;;;9.50;99.90;;;;;;4937856;29;20023;-45
2022/01/03 00:24:33;;;;;;;35.70;25.45;;;9.60;99.90;;;;;;4937834;29;20034;-42
2022/01/03 00:27:15;;;;;;;37.25;27.38;;;9.50;99.90;;;;;;4937916;29;20440;-41
2022/01/03 00:29:50;;;;;;;32.45;23.67;;;9.10;99.90;;;;;;4938244;29;20019;-44
2022/01/03 00:32:16;;;;;;;35.80;25.08;;;8.90;99.90;;;;;;4904403;29;20058;-41
2022/01/03 00:34:44;;;;;;;37.40;26.65;;;8.90;99.90;;;;;;4937563;29;20032;-41
2022/01/03 00:37:10;;;;;;;39.20;25.60;;;8.80;99.90;;;;;;4937364;29;20032;-43
2022/01/03 00:39:37;;;;;;;40.72;27.05;;;8.80;99.90;;;;;;4937583;29;20040;-43
2022/01/03 00:42:03;;;;;;;35.53;25.40;;;8.90;99.90;;;;;;4937574;29;20440;-42
2022/01/03 00:44:30;;;;;;;38.65;26.33;;;9.30;99.90;;;;;;4901254;29;20044;-44
2022/01/03 00:46:57;;;;;;;42.97;26.42;;;9.40;99.90;;;;;;4903604;29;20349;-43
2022/01/03 00:49:23;;;;;;;37.33;25.77;;;9.40;99.90;;;;;;4937718;29;20512;-41
2022/01/03 00:51:49;;;;;;;31.08;22.05;;;9.50;99.90;;;;;;4937063;29;20031;-41
2022/01/03 00:54:15;;;;;;;35.28;25.38;;;9.40;99.90;;;;;;4919604;29;20459;-44
2022/01/03 00:56:47;;;;;;;51.70;32.67;;;9.30;99.90;;;;;;4937202;29;20130;-41
2022/01/03 00:59:34;;;;;;;34.35;23.67;;;9.10;99.90;;;;;;4903594;29;20468;-42
2022/01/03 01:02:01;;;;;;;37.75;23.00;;;8.60;99.90;;;;;;4936631;29;20118;-42
2022/01/03 01:04:28;;;;;;;39.92;26.45;;;7.90;99.90;;;;;;4937187;29;20023;-42
2022/01/03 01:06:55;;;;;;;39.72;26.63;;;7.70;99.90;;;;;;4937239;29;20032;-41
2022/01/03 01:09:24;;;;;;;46.42;28.17;;;7.80;99.90;;;;;;4937425;29;20110;-42
2022/01/03 01:11:56;;;;;;;48.25;28.85;;;8.10;99.90;;;;;;4903316;29;20100;-44
2022/01/03 01:14:23;;;;;;;68.55;36.85;;;;;;;;;;4896601;29;20040;-42
2022/01/03 01:16:50;;;;;;;64.75;34.03;;;8.50;99.90;;;;;;4897018;29;20128;-43
2022/01/03 01:19:18;;;;;;;54.60;31.73;;;8.70;99.90;;;;;;4896714;29;20044;-41
2022/01/03 01:21:44;;;;;;;46.40;27.20;;;8.80;99.90;;;;;;4896538;29;20044;-44
2022/01/03 01:24:10;;;;;;;37.90;22.52;;;8.90;99.90;;;;;;4881147;29;20051;-45
2022/01/03 01:29:21;;;;;;;27.98;17.48;;;9.10;99.90;;;;;;4896895;29;20151;-40
2022/01/03 01:31:53;;;;;;;32.30;19.50;;;9.20;99.90;;;;;;4896705;29;20501;-41
2022/01/03 01:34:22;;;;;;;38.38;22.73;;;9.20;99.90;;;;;;4896749;29;20493;-43
2022/01/03 01:36:53;;;;;;;34.47;22.25;;;9.40;99.90;;;;;;4896379;29;20111;-43
2022/01/03 01:39:20;;;;;;;29.20;17.52;;;9.50;99.90;;;;;;4896550;29;20047;-43
2022/01/03 01:41:46;;;;;;;21.35;14.27;;;9.60;99.90;;;;;;4880718;29;20044;-44
2022/01/03 01:44:13;;;;;;;24.50;17.55;;;9.60;99.90;;;;;;4897272;29;20033;-42
2022/01/03 01:46:52;;;;;;;25.25;14.52;;;9.70;99.90;;;;;;4936528;29;20028;-42
2022/01/03 01:49:20;;;;;;;23.40;14.50;;;9.70;99.90;;;;;;4936392;29;20031;-42
2022/01/03 01:51:53;;;;;;;19.45;14.57;;;9.80;99.90;;;;;;4936242;29;20096;-42
2022/01/03 01:54:19;;;;;;;20.73;14.65;;;9.70;99.90;;;;;;4936816;29;20031;-41
2022/01/03 01:57:02;;;;;;;23.13;14.27;;;9.80;99.90;;;;;;4936259;29;20083;-41
2022/01/03 01:59:40;;;;;;;19.85;13.85;;;9.80;99.90;;;;;;4935956;29;20126;-43
2022/01/03 02:02:15;;;;;;;20.05;13.50;;;9.80;99.90;;;;;;4936267;29;20127;-42
2022/01/03 02:05:03;;;;;;;23.25;16.75;;;9.70;99.90;;;;;;4935548;29;20055;-41
2022/01/03 02:07:37;;;;;;;20.55;14.75;;;9.40;99.90;;;;;;4936596;29;20032;-41
2022/01/03 02:10:08;;;;;;;19.58;14.15;;;8.70;99.90;;;;;;4936125;29;20119;-41
2022/01/03 02:12:48;;;;;;;26.42;15.73;;;8.60;99.90;;;;;;4918142;29;20107;-42
2022/01/03 02:15:17;;;;;;;23.70;15.55;;;8.80;99.90;;;;;;4936387;29;20036;-44
2022/01/03 02:17:45;;;;;;;22.00;13.80;;;8.80;99.90;;;;;;4936272;29;20024;-41
2022/01/03 02:20:17;;;;;;;24.27;14.30;;;8.80;99.90;;;;;;4935831;29;20480;-41
2022/01/03 02:22:43;;;;;;;;;;;8.60;99.90;;;;;;4936583;29;20034;-43
2022/01/03 02:25:12;;;;;;;22.27;14.98;;;8.60;99.90;;;;;;4895959;29;19998;-42
2022/01/03 02:27:38;;;;;;;21.00;15.35;;;8.60;99.90;;;;;;4880046;29;20071;-44
2022/01/03 02:30:07;;;;;;;23.17;15.40;;;8.80;99.90;;;;;;4896121;29;20213;-44
2022/01/03 02:32:33;;;;;;;25.15;17.80;;;8.90;99.90;;;;;;4834541;29;20052;-43
2022/01/03 02:34:58;;;;;;;26.88;16.35;;;8.90;99.90;;;;;;4895923;29;20043;-43
2022/01/03 02:37:24;;;;;;;28.02;18.15;;;8.80;99.90;;;;;;4880317;29;20036;-44
2022/01/03 02:39:54;;;;;;;26.95;18.90;;;8.90;99.90;;;;;;4880338;29;20080;-44
2022/01/03 02:42:23;;;;;;;30.48;19.90;;;8.90;99.90;;;;;;4880261;29;20054;-42
2022/01/03 02:45:04;;;;;;;41.42;26.00;;;9.00;99.90;;;;;;4895984;29;20525;-43
2022/01/03 02:47:29;;;;;;;39.60;24.63;;;9.00;99.90;;;;;;4880442;29;20065;-44
2022/01/03 02:49:55;;;;;;;32.70;21.48;;;9.00;99.90;;;;;;4895780;29;20044;-43
2022/01/03 02:52:21;;;;;;;22.08;15.80;;;9.10;99.90;;;;;;4896090;29;20108;-42
2022/01/03 02:54:49;;;;;;;28.25;16.75;;;8.80;99.90;;;;;;4896062;29;20136;-43
2022/01/03 02:57:15;;;;;;;24.48;14.25;;;8.90;99.90;;;;;;4895774;29;20040;-41
2022/01/03 02:59:40;;;;;;;21.10;14.48;;;9.00;99.90;;;;;;4898013;29;20127;-42
2022/01/03 03:02:07;;;;;;;27.15;14.32;;;9.00;99.90;;;;;;4911666;29;20195;-44
2022/01/03 03:04:51;;;;;;;21.17;14.07;;;9.00;99.90;;;;;;4939719;29;20035;-44
2022/01/03 03:07:21;;;;;;;27.98;18.15;;;8.40;99.90;;;;;;4905608;29;20054;-41
2022/01/03 03:09:47;;;;;;;27.58;20.40;;;8.00;99.90;;;;;;4936452;29;20468;-40
2022/01/03 03:12:13;;;;;;;32.83;21.63;;;7.70;99.90;;;;;;4939290;29;20024;-42
2022/01/03 03:14:39;;;;;;;31.95;21.30;;;7.50;99.90;;;;;;4921511;29;20120;-42
2022/01/03 03:17:05;;;;;;;34.15;22.58;;;7.40;99.90;;;;;;4939227;29;20368;-41
2022/01/03 03:19:31;;;;;;;30.17;21.98;;;7.50;99.90;;;;;;4939093;29;20035;-42
2022/01/03 03:21:57;;;;;;;28.77;20.35;;;7.70;99.90;;;;;;4939133;29;20104;-41
2022/01/03 03:24:23;;;;;;;23.27;16.05;;;7.80;99.90;;;;;;4939033;29;20032;-42
2022/01/03 03:26:49;;;;;;;32.40;19.98;;;7.70;99.90;;;;;;4889584;29;20416;-44
2022/01/03 03:29:15;;;;;;;25.10;18.67;;;7.60;99.90;;;;;;4939162;29;20396;-44
2022/01/03 03:31:41;;;;;;;30.00;18.85;;;7.40;99.90;;;;;;4938970;29;20409;-44
2022/01/03 03:34:07;;;;;;;27.10;19.00;;;7.50;99.90;;;;;;4920975;29;20122;-42
2022/01/03 03:36:33;;;;;;;26.48;18.48;;;7.40;99.90;;;;;;4939061;29;20123;-41
2022/01/03 03:38:59;;;;;;;25.17;17.52;;;;;;;;;;4938761;29;20040;-41
2022/01/03 03:41:26;;;;;;;24.48;16.55;;;6.80;99.90;;;;;;4938858;29;20032;-42
2022/01/03 03:43:52;;;;;;;23.05;16.10;;;6.80;99.90;;;;;;4938881;29;20066;-43
2022/01/03 03:46:18;;;;;;;31.83;17.20;;;6.80;99.90;;;;;;4889590;29;20484;-42
2022/01/03 03:48:44;;;;;;;63.95;32.17;;;6.70;99.90;;;;;;4920734;29;20472;-42
2022/01/03 03:51:09;;;;;;;22.88;14.93;;;6.60;99.90;;;;;;4920640;29;20091;-43
2022/01/03 03:53:35;;;;;;;22.40;14.45;;;6.60;99.90;;;;;;4904542;29;20110;-43
2022/01/03 03:56:01;;;;;;;22.13;13.98;;;6.60;99.90;;;;;;4888915;29;20046;-42
2022/01/03 03:58:27;;;;;;;19.38;14.73;;;6.50;99.90;;;;;;4920686;29;20063;-41
2022/01/03 04:00:53;;;;;;;19.67;13.77;;;6.80;99.90;;;;;;4920303;29;20392;-43
2022/01/03 04:03:19;;;;;;;20.15;13.25;;;6.80;99.90;;;;;;4938402;29;20395;-41
2022/01/03 04:05:44;;;;;;;21.25;12.32;;;6.50;99.90;;;;;;4920134;29;20044;-44
2022/01/03 04:08:10;;;;;;;24.63;15.35;;;6.40;99.90;;;;;;4919360;29;20040;-42
2022/01/03 04:10:36;;;;;;;21.73;15.85;;;6.60;99.90;;;;;;4885173;29;20075;-43
2022/01/03 04:13:02;;;;;;;21.08;14.25;;;6.50;99.90;;;;;;4885989;29;20112;-41
2022/01/03 04:15:27;;;;;;;20.55;14.05;;;6.40;99.90;;;;;;4854623;29;20036;-44
2022/01/03 04:17:53;;;;;;;21.60;13.85;;;6.60;99.90;;;;;;4918668;29;20032;-43
2022/01/03 04:20:19;;;;;;;20.33;13.90;;;6.70;99.90;;;;;;4918871;29;20126;-43
2022/01/03 04:22:45;;;;;;;22.15;14.27;;;6.90;99.90;;;;;;4918906;29;20032;-42
2022/01/03 04:25:11;;;;;;;18.85;12.85;;;7.10;99.90;;;;;;4885446;29;20495;-42
2022/01/03 04:27:37;;;;;;;22.42;13.85;;;7.00;99.90;;;;;;4919673;29;20436;-44
2022/01/03 04:30:04;;;;;;;18.83;13.07;;;7.20;99.90;;;;;;4919559;29;20036;-43
2022/01/03 04:32:30;;;;;;;20.92;12.77;;;7.10;99.90;;;;;;4886422;29;20044;-44
2022/01/03 04:34:55;;;;;;;21.65;13.13;;;7.00;99.90;;;;;;4919500;29;20102;-43
2022/01/03 04:37:21;;;;;;;18.70;12.00;;;7.20;99.90;;;;;;4885882;29;20047;-41
2022/01/03 04:39:47;;;;;;;17.83;12.50;;;7.40;99.90;;;;;;4885290;29;20453;-41
2022/01/03 04:42:13;;;;;;;20.27;13.40;;;7.40;99.90;;;;;;4918328;29;20035;-44
2022/01/03 04:44:38;;;;;;;18.92;13.55;;;7.60;99.90;;;;;;4918749;29;20028;-44
2022/01/03 04:47:04;;;;;;;17.30;12.75;;;7.70;99.90;;;;;;4918449;29;20032;-42
2022/01/03 04:49:30;;;;;;;19.77;12.18;;;7.40;99.90;;;;;;4885190;29;20040;-41
2022/01/03 04:51:56;;;;;;;18.10;12.38;;;7.30;99.90;;;;;;4918662;29;20059;-44
2022/01/03 04:54:21;;;;;;;19.42;12.80;;;7.40;99.90;;;;;;4885305;29;20051;-41
2022/01/03 04:56:47;;;;;;;20.08;12.23;;;7.40;99.90;;;;;;4918257;29;20034;-42
2022/01/03 04:59:13;;;;;;;21.08;13.38;;;7.30;99.90;;;;;;4884662;29;20480;-41
2022/01/03 05:01:39;;;;;;;18.65;12.77;;;7.30;99.90;;;;;;4897207;29;20509;-42
2022/01/03 05:04:04;;;;;;;18.70;12.65;;;7.50;99.90;;;;;;4899302;29;20108;-44
2022/01/03 05:06:30;;;;;;;15.98;10.98;;;7.20;99.90;;;;;;4899276;29;20475;-43
2022/01/03 05:08:56;;;;;;;21.23;12.13;;;7.10;99.90;;;;;;4881731;29;20037;-41
2022/01/03 05:11:22;;;;;;;19.63;12.15;;;7.40;99.90;;;;;;4881595;29;20044;-44
2022/01/03 05:13:47;;;;;;;16.27;12.25;;;7.20;99.90;;;;;;4891860;29;20032;-44
2022/01/03 05:16:13;;;;;;;17.77;12.00;;;7.20;99.90;;;;;;4880346;29;20040;-44
2022/01/03 05:18:39;;;;;;;18.70;11.70;;;7.40;99.90;;;;;;4879004;29;20048;-41
2022/01/03 05:21:05;;;;;;;18.20;12.63;;;7.30;99.90;;;;;;4880508;29;20032;-42
2022/01/03 05:23:31;;;;;;;20.73;15.02;;;7.20;99.90;;;;;;4896735;29;20048;-45
2022/01/03 05:25:57;;;;;;;23.25;13.98;;;7.30;99.90;;;;;;4881256;29;20470;-45
2022/01/03 05:28:23;;;;;;;21.90;14.30;;;6.90;99.90;;;;;;4898885;29;20120;-41
2022/01/03 05:30:48;;;;;;;20.92;13.57;;;6.90;99.90;;;;;;4898736;29;20033;-43
2022/01/03 05:33:14;;;;;;;19.15;13.63;;;6.80;99.90;;;;;;4898718;29;20092;-41
2022/01/03 05:35:40;;;;;;;23.25;15.15;;;6.90;99.90;;;;;;4881357;29;20100;-43
2022/01/03 05:38:06;;;;;;;34.03;19.63;;;7.20;99.90;;;;;;4881258;29;20116;-44
2022/01/03 05:40:32;;;;;;;36.65;22.17;;;7.20;99.90;;;;;;4865314;29;20044;-41
2022/01/03 05:42:57;;;;;;;49.38;26.55;;;6.90;99.90;;;;;;4846640;29;20146;-40
2022/01/03 05:45:23;;;;;;;60.75;32.35;;;6.90;99.90;;;;;;4877677;29;20041;-41
2022/01/03 05:47:49;;;;;;;59.58;33.40;;;6.70;99.90;;;;;;4877542;29;20037;-43
2022/01/03 05:50:16;;;;;;;90.88;43.85;;;6.90;99.90;;;;;;4877663;29;20421;-42
2022/01/03 05:52:43;;;;;;;78.05;39.70;;;6.90;99.90;;;;;;4866367;29;20049;-42
2022/01/03 05:55:09;;;;;;;53.63;30.73;;;6.80;99.90;;;;;;4858787;29;20517;-42
2022/01/03 05:57:35;;;;;;;48.22;30.30;;;6.60;99.90;;;;;;4858746;29;20395;-42
2022/01/03 06:00:03;;;;;;;46.95;30.60;;;6.60;99.90;;;;;;4828604;29;20159;-44
2022/01/03 06:02:34;;;;;;;44.92;29.90;;;6.40;99.90;;;;;;4875954;29;20152;-42
2022/01/03 06:05:02;;;;;;;37.10;26.37;;;6.30;99.90;;;;;;4877667;29;20037;-42
2022/01/03 06:07:28;;;;;;;37.53;24.70;;;6.30;99.90;;;;;;4877567;29;20681;-43
2022/01/03 06:09:53;;;;;;;38.17;25.77;;;6.30;99.90;;;;;;4861844;29;20127;-41
2022/01/03 06:12:20;;;;;;;36.50;24.92;;;6.30;99.90;;;;;;4861808;29;20477;-44
2022/01/03 06:14:47;;;;;;;34.95;25.30;;;6.20;99.90;;;;;;4894994;29;20067;-42
2022/01/03 06:17:14;;;;;;;35.92;24.50;;;6.30;99.90;;;;;;4849608;29;20040;-43
2022/01/03 06:19:40;;;;;;;36.97;28.40;;;6.30;99.90;;;;;;4898201;29;20119;-44
2022/01/03 06:22:11;;;;;;;41.38;28.15;;;6.50;99.90;;;;;;4898594;29;20029;-40
2022/01/03 06:24:39;;;;;;;38.72;27.80;;;6.50;99.90;;;;;;4898514;29;20396;-41
2022/01/03 06:27:05;;;;;;;34.58;27.15;;;6.60;99.90;;;;;;4898754;29;20418;-41
2022/01/03 06:29:31;;;;;;;33.10;22.95;;;6.90;99.90;;;;;;4898288;29;20041;-42
2022/01/03 06:31:57;;;;;;;31.83;23.17;;;6.80;99.90;;;;;;4896111;29;20040;-41
2022/01/03 06:34:24;;;;;;;35.10;24.40;;;6.80;99.90;;;;;;4898137;29;20047;-41
2022/01/03 06:36:50;;;;;;;33.42;23.77;;;6.90;99.90;;;;;;4902307;29;20044;-43
2022/01/03 06:39:16;;;;;;;40.15;24.77;;;7.10;99.90;;;;;;4874768;29;20416;-44
2022/01/03 06:41:42;;;;;;;37.28;25.88;;;7.00;99.90;;;;;;4879783;29;20068;-45
2022/01/03 06:44:08;;;;;;;38.58;28.00;;;6.90;99.90;;;;;;4899226;29;20091;-43
2022/01/03 06:46:34;;;;;;;45.53;27.50;;;7.00;99.90;;;;;;4887152;29;20044;-43
2022/01/03 06:49:02;;;;;;;69.78;36.67;;;7.50;99.90;;;;;;4920930;29;20099;-45
2022/01/03 06:51:34;;;;;;;58.55;34.92;;;7.60;99.90;;;;;;4920660;29;20036;-42
2022/01/03 06:54:02;;;;;;;57.67;36.47;;;7.50;99.90;;;;;;4920511;29;20040;-42
2022/01/03 06:56:28;;;;;;;60.60;37.85;;;7.70;99.90;;;;;;4920475;29;20020;-41
2022/01/03 06:58:53;;;;;;;42.88;29.95;;;7.90;99.90;;;;;;4903546;29;20051;-42
2022/01/03 07:01:19;;;;;;;41.60;28.77;;;7.90;99.90;;;;;;4920137;29;20107;-41
2022/01/03 07:03:45;;;;;;;47.55;30.10;;;8.10;99.90;;;;;;4920488;29;20099;-41
2022/01/03 07:06:10;;;;;;;67.20;40.83;;;8.40;99.90;;;;;;4887003;29;20048;-41
2022/01/03 07:08:36;;;;;;;56.10;33.53;;;;;;;;;;4920042;29;20028;-43
2022/01/03 07:11:02;;;;;;;47.70;28.08;;;8.50;99.90;;;;;;4920297;29;20036;-41
2022/01/03 07:13:39;;;;;;;60.72;33.22;;;8.70;99.90;;;;;;4920080;29;20035;-41
2022/01/03 07:19:00;;;;;;;35.28;26.63;;;9.40;99.90;;;;;;4920448;29;20127;-41
2022/01/03 07:21:27;;;;;;;42.22;27.08;;;9.20;99.90;;;;;;4889849;29;20047;-43
2022/01/03 07:23:54;;;;;;;151.05;78.93;;;9.30;99.90;;;;;;4902718;29;20392;-42
2022/01/03 07:26:20;;;;;;;101.50;58.28;;;9.40;99.90;;;;;;4919886;29;20042;-42
2022/01/03 07:28:46;;;;;;;70.88;44.30;;;9.90;99.90;;;;;;4917563;29;20039;-44
2022/01/03 07:31:12;;;;;;;51.72;32.70;;;10.00;99.90;;;;;;4919129;29;20622;-44
2022/01/03 07:33:38;;;;;;;42.75;32.92;;;10.00;99.90;;;;;;4902183;29;20052;-43
2022/01/03 07:36:04;;;;;;;44.05;30.90;;;10.00;99.90;;;;;;4886295;29;20036;-44
2022/01/03 07:38:29;;;;;;;48.85;29.15;;;10.00;99.90;;;;;;4885897;29;20044;-45
2022/01/03 07:40:55;;;;;;;41.60;27.85;;;9.90;99.90;;;;;;4920313;29;20043;-42
2022/01/03 07:43:21;;;;;;;45.40;30.95;;;9.70;99.90;;;;;;4911199;29;20027;-44
2022/01/03 07:45:47;;;;;;;51.15;30.67;;;9.70;99.90;;;;;;4857948;29;20044;-44
2022/01/03 07:48:12;;;;;;;51.63;28.98;;;9.60;99.90;;;;;;4918001;29;20461;-43
2022/01/03 07:50:38;;;;;;;51.83;30.45;;;9.60;99.90;;;;;;4902901;29;20127;-44
2022/01/03 07:53:04;;;;;;;79.75;50.60;;;9.50;99.90;;;;;;4886067;29;20043;-44
2022/01/03 07:55:30;;;;;;;172.63;98.47;;;9.50;99.90;;;;;;4919562;29;20424;-43
2022/01/03 07:57:56;;;;;;;253.35;145.27;;;9.60;99.90;;;;;;4901692;29;20040;-42
2022/01/03 08:00:22;;;;;;;106.15;67.13;;;9.90;99.90;;;;;;4919021;29;20068;-43
2022/01/03 08:02:48;;;;;;;115.68;70.40;;;10.40;99.90;;;;;;4919409;29;20028;-44
2022/01/03 08:05:15;;;;;;;95.97;59.30;;;11.30;99.90;;;;;;4919181;29;20028;-44
2022/01/03 08:07:43;;;;;;;92.05;62.40;;;12.30;99.90;;;;;;4923314;29;20031;-44
2022/01/03 08:10:11;;;;;;;90.03;59.20;;;13.80;99.90;;;;;;4901423;29;20051;-44
2022/01/03 08:12:39;;;;;;;68.82;51.20;;;15.30;99.90;;;;;;4916625;29;20043;-44
2022/01/03 08:15:07;;;;;;;60.63;44.10;;;16.60;99.90;;;;;;4919193;29;20472;-44
2022/01/03 08:17:33;;;;;;;55.17;37.80;;;17.40;99.90;;;;;;4919110;29;20035;-44
2022/01/03 08:19:59;;;;;;;49.08;34.53;;;18.20;99.90;;;;;;4918324;29;20385;-45
2022/01/03 08:22:25;;;;;;;55.80;34.92;;;18.90;99.90;;;;;;4911137;29;20044;-42
2022/01/03 08:24:51;;;;;;;68.70;45.35;;;;;;;;;;4919597;29;20035;-45
2022/01/03 08:27:17;;;;;;;60.03;44.63;;;20.60;99.90;;;;;;4924447;29;20039;-43
2022/01/03 08:29:42;;;;;;;76.95;50.13;;;21.20;96.20;;;;;;4918331;29;20029;-42
2022/01/03 08:32:08;;;;;;;99.68;61.35;;;21.30;94.40;;;;;;4919078;29;20028;-43
2022/01/03 08:34:34;;;;;;;124.05;86.95;;;21.70;93.40;;;;;;4885448;29;20488;-45
2022/01/03 08:37:00;;;;;;;87.47;62.28;;;21.70;91.90;;;;;;4885335;29;20036;-45
2022/01/03 08:39:27;;;;;;;80.45;57.25;;;;;;;;;;4918775;29;20120;-45
2022/01/03 08:41:53;;;;;;;81.10;58.33;;;21.80;90.60;;;;;;4918723;29;20038;-45
2022/01/03 08:44:19;;;;;;;87.55;66.32;;;;;;;;;;4918791;29;21090;-42
2022/01/03 08:46:46;;;;;;;97.80;72.00;;;20.10;90.40;;;;;;4918622;29;20387;-43
2022/01/03 08:49:13;;;;;;;80.55;59.47;;;19.70;91.80;;;;;;4912554;29;20044;-43
2022/01/03 08:51:39;;;;;;;117.30;75.22;;;19.60;92.10;;;;;;4907290;29;20119;-41
2022/01/03 08:54:05;;;;;;;98.13;70.05;;;19.40;92.00;;;;;;4897743;29;20127;-42
2022/01/03 08:56:31;;;;;;;94.43;70.03;;;19.00;92.30;;;;;;4915682;29;20400;-42
2022/01/03 08:58:56;;;;;;;79.07;61.60;;;18.40;92.40;;;;;;4883030;29;20044;-41
2022/01/03 09:01:22;;;;;;;130.10;84.60;;;18.20;92.80;;;;;;4874550;29;20065;-43
2022/01/03 09:03:50;;;;;;;98.18;68.65;;;18.50;93.20;;;;;;4854199;29;20041;-44
2022/01/03 09:06:17;;;;;;;84.82;57.97;;;19.30;92.50;;;;;;4894254;29;20029;-45
2022/01/03 09:08:44;;;;;;;53.78;42.88;;;19.50;91.20;;;;;;4854610;29;20383;-43
2022/01/03 09:11:10;;;;;;;64.05;48.53;;;19.00;91.20;;;;;;4886925;29;20040;-40
2022/01/03 09:13:37;;;;;;;98.07;63.85;;;18.50;91.80;;;;;;4889058;29;20055;-43
2022/01/03 09:16:06;;;;;;;97.90;68.28;;;18.10;92.70;;;;;;4896663;29;20029;-43
2022/01/03 09:18:37;;;;;;;131.27;82.88;;;18.60;92.20;;;;;;4889303;29;20484;-42
2022/01/03 09:21:04;;;;;;;124.63;88.27;;;18.80;91.90;;;;;;4882690;29;20033;-43
2022/01/03 09:23:35;;;;;;;157.20;109.70;;;18.30;93.40;;;;;;4892527;29;20071;-41
2022/01/03 09:28:56;;;;;;;63.58;54.70;;;19.30;92.50;;;;;;4890598;29;20127;-43
2022/01/03 09:31:38;;;;;;;65.53;51.72;;;19.90;91.90;;;;;;4888172;29;20521;-43
2022/01/03 09:34:06;;;;;;;71.97;52.85;;;19.50;92.00;;;;;;4888954;29;20048;-42
2022/01/03 09:36:32;;;;;;;58.17;47.95;;;18.60;92.50;;;;;;4894356;29;20036;-43
2022/01/03 09:39:00;;;;;;;58.50;47.92;;;18.90;93.40;;;;;;4886664;29;20065;-41
2022/01/03 09:41:27;;;;;;;55.42;43.78;;;19.60;93.30;;;;;;4891698;29;20145;-43
2022/01/03 09:43:56;;;;;;;49.80;41.33;;;18.40;93.20;;;;;;4886955;29;20033;-42
2022/01/03 09:46:32;;;;;;;51.15;40.40;;;18.90;93.10;;;;;;4897691;29;20033;-42
2022/01/03 09:48:57;;;;;;;45.28;40.38;;;18.50;94.80;;;;;;4894394;29;20155;-43
2022/01/03 09:51:31;;;;;;;59.90;47.85;;;19.20;93.40;;;;;;4895189;29;20110;-42
2022/01/03 09:53:59;;;;;;;71.32;51.30;;;19.80;93.10;;;;;;4890231;29;20129;-42
2022/01/03 09:56:31;;;;;;;51.90;39.78;;;20.40;99.90;;;;;;4897705;29;20037;-41
2022/01/03 09:58:58;;;;;;;44.47;36.50;;;20.20;92.50;;;;;;4891692;29;20115;-41
2022/01/03 10:01:24;;;;;;;49.88;37.63;;;19.50;92.10;;;;;;4902591;29;20052;-41
2022/01/03 10:03:50;;;;;;;64.85;45.88;;;19.00;92.30;;;;;;4914965;29;20388;-40
2022/01/03 10:06:18;;;;;;;44.53;35.85;;;17.60;93.40;;;;;;4910680;29;20031;-46
2022/01/03 10:08:44;;;;;;;54.80;40.65;;;17.40;93.80;;;;;;4870954;29;20366;-43
2022/01/03 10:11:11;;;;;;;56.92;41.38;;;16.80;94.60;;;;;;4906815;29;20036;-44
2022/01/03 10:13:37;;;;;;;53.85;43.90;;;16.30;95.50;;;;;;4908939;29;20536;-43
2022/01/03 10:16:03;;;;;;;64.45;47.15;;;16.10;96.10;;;;;;4892867;29;20059;-43
2022/01/03 10:18:29;;;;;;;92.13;59.67;;;16.10;96.70;;;;;;4906670;29;20481;-44
2022/01/03 10:20:56;;;;;;;87.10;57.58;;;16.40;96.80;;;;;;4910760;29;20051;-43
2022/01/03 10:23:22;;;;;;;65.43;46.40;;;16.10;97.20;;;;;;4910985;29;20123;-43
2022/01/03 10:25:47;;;;;;;68.32;48.78;;;16.50;96.80;;;;;;4912065;29;20040;-44
2022/01/03 10:28:28;;;;;;;63.63;44.08;;;16.20;97.30;;;;;;4863655;29;20148;-43
2022/01/03 10:30:54;;;;;;;73.63;53.90;;;15.70;97.70;;;;;;4892234;29;20087;-43
2022/01/03 10:33:21;;;;;;;85.47;56.08;;;15.80;98.30;;;;;;4884579;29;20072;-43
2022/01/03 10:35:50;;;;;;;88.20;47.83;;;15.70;98.30;;;;;;4860202;29;20037;-44
2022/01/03 10:38:38;;;;;;;70.63;48.95;;;15.80;98.40;;;;;;4859671;29;20168;-43
2022/01/03 10:41:14;;;;;;;56.97;41.55;;;15.50;98.90;;;;;;4887572;29;20468;-45
2022/01/03 10:43:58;;;;;;;110.85;66.45;;;15.20;99.50;;;;;;4884385;29;20505;-45
2022/01/03 10:46:30;;;;;;;73.20;48.15;;;15.00;99.80;;;;;;4890699;29;20088;-45
2022/01/03 10:49:19;;;;;;;57.65;42.13;;;14.70;99.90;;;;;;4892540;29;20055;-45
2022/01/03 10:51:46;;;;;;;53.95;38.13;;;14.40;99.90;;;;;;4884268;29;20398;-45
2022/01/03 10:54:15;;;;;;;51.78;36.53;;;14.00;99.90;;;;;;4890323;29;20417;-46
2022/01/03 10:56:47;;;;;;;49.03;36.10;;;13.60;99.90;;;;;;4885898;29;20116;-46
2022/01/03 10:59:21;;;;;;;55.58;37.35;;;13.70;99.90;;;;;;4888772;29;20052;-45
2022/01/03 11:01:50;;;;;;;42.28;34.08;;;13.60;99.90;;;;;;4888757;29;20397;-50
2022/01/03 11:04:47;;;;;;;40.92;32.13;;;13.90;99.90;;;;;;4887429;29;20064;-47
2022/01/03 11:13:08;;;;;;;33.15;26.02;;;14.90;99.90;;;;;;4907447;29;20043;-51
2022/01/03 11:15:35;;;;;;;40.05;33.20;;;15.00;99.90;;;;;;4915526;29;20460;-50
2022/01/03 11:18:39;;;;;;;47.72;35.03;;;14.70;99.90;;;;;;4826279;29;20041;-49
2022/01/03 11:21:24;;;;;;;45.95;35.47;;;15.50;99.90;;;;;;4840489;29;20164;-49
2022/01/03 11:24:11;;;;;;;42.83;33.53;;;16.10;99.90;;;;;;4860555;29;20056;-48
2022/01/03 11:26:49;;;;;;;72.35;35.58;;;16.60;99.90;;;;;;4859080;29;20528;-50
2022/01/03 11:29:16;;;;;;;43.90;35.38;;;17.30;99.90;;;;;;4812817;29;20037;-57
2022/01/03 11:31:43;;;;;;;46.30;35.95;;;16.60;99.90;;;;;;4860204;29;20090;-52
2022/01/03 11:34:11;;;;;;;46.47;32.92;;;16.70;99.90;;;;;;4863229;29;20041;-48
2022/01/03 11:36:39;;;;;;;52.15;36.03;;;16.40;99.90;;;;;;4856530;29;20029;-49
2022/01/03 11:39:08;;;;;;;41.10;31.98;;;16.20;99.90;;;;;;4856995;29;20048;-51
2022/01/03 11:41:36;;;;;;;44.15;34.08;;;16.40;99.90;;;;;;4855965;29;20033;-51
2022/01/03 11:44:03;;;;;;;43.33;34.20;;;16.40;99.90;;;;;;4859305;29;20050;-50
2022/01/03 11:46:30;;;;;;;41.42;30.98;;;16.10;99.90;;;;;;4863030;29;20044;-48
2022/01/03 11:48:56;;;;;;;42.40;33.28;;;15.80;99.90;;;;;;4882450;29;20045;-48
2022/01/03 11:51:23;;;;;;;61.33;47.42;;;15.70;99.90;;;;;;4916687;29;20044;-48
2022/01/03 11:53:50;;;;;;;61.42;43.63;;;15.50;99.90;;;;;;4888941;29;20217;-48
2022/01/03 11:56:19;;;;;;;63.75;47.30;;;15.00;99.90;;;;;;4911054;29;20044;-48
2022/01/03 11:59:20;;;;;;;48.95;38.80;;;14.90;99.90;;;;;;4912295;29;20036;-48
2022/01/03 12:04:39;;;;;;;37.78;28.40;;;15.30;99.90;;;;;;4921383;29;20039;-52
2022/01/03 12:07:09;;;;;;;33.63;24.80;;;15.70;99.90;;;;;;4868862;29;20179;-51
2022/01/03 12:09:43;;;;;;;37.50;27.50;;;15.20;99.90;;;;;;4912249;29;20045;-50
2022/01/03 12:12:09;;;;;;;33.33;26.45;;;15.30;99.90;;;;;;4916161;29;20039;-50
2022/01/03 12:14:44;;;;;;;32.63;24.60;;;16.20;99.90;;;;;;4913375;29;20482;-52
2022/01/03 12:17:14;;;;;;;31.05;23.88;;;15.90;99.90;;;;;;4916588;29;20036;-51
2022/01/03 12:19:46;;;;;;;30.92;24.88;;;16.10;99.90;;;;;;4910989;29;20487;-51
2022/01/03 12:22:21;;;;;;;31.00;21.73;;;16.50;99.90;;;;;;4884386;29;20047;-51
2022/01/03 12:24:51;;;;;;;29.35;22.90;;;16.20;99.90;;;;;;4913219;29;20043;-51
2022/01/03 12:27:21;;;;;;;28.38;21.08;;;16.10;99.90;;;;;;4884959;29;20040;-51
2022/01/03 12:32:26;;;;;;;33.03;23.98;;;15.80;99.90;;;;;;4912279;29;20035;-50
2022/01/03 12:35:15;;;;;;;28.55;20.48;;;15.70;99.90;;;;;;4862091;29;20033;-51
2022/01/03 12:37:47;;;;;;;24.77;15.27;;;15.50;99.90;;;;;;4873878;29;20072;-50
2022/01/03 12:40:14;;;;;;;24.63;19.95;;;15.00;99.90;;;;;;4875078;29;20069;-51
2022/01/03 12:42:49;;;;;;;24.83;18.80;;;15.00;99.90;;;;;;4879073;29;20098;-51
2022/01/03 12:45:29;;;;;;;21.80;17.08;;;14.70;99.90;;;;;;4878444;29;20073;-51
2022/01/03 12:48:11;;;;;;;20.75;16.63;;;14.70;99.90;;;;;;4879071;29;20113;-51
2022/01/03 12:50:46;;;;;;;20.77;15.60;;;14.70;99.90;;;;;;4883454;29;20144;-50
2022/01/03 12:53:27;;;;;;;22.40;15.05;;;14.40;99.90;;;;;;4886196;29;20108;-50
2022/01/03 12:56:02;;;;;;;20.35;16.20;;;14.30;99.90;;;;;;4885595;29;20151;-50
2022/01/03 12:58:27;;;;;;;22.90;17.50;;;14.30;99.90;;;;;;4886219;29;20029;-50
2022/01/03 13:00:58;;;;;;;25.83;17.58;;;14.10;99.90;;;;;;4886669;29;20477;-50
2022/01/03 13:03:42;;;;;;;26.45;19.92;;;14.00;99.90;;;;;;4882449;29;20037;-51